createdAt,value
2022-12-04T00:00:44.399Z,14.70
2022-12-04T00:02:51.935Z,15.30
2022-12-04T00:04:56.809Z,15.90
2022-12-04T00:07:01.710Z,16.20
2022-12-04T00:09:07.575Z,15.60
2022-12-04T00:11:14.036Z,16.10
2022-12-04T00:13:18.712Z,15.70
2022-12-04T00:15:25.526Z,16.20
2022-12-04T00:17:30.573Z,15.80
2022-12-04T00:19:35.317Z,16.70
2022-12-04T00:21:40.068Z,16.40
2022-12-04T00:23:44.983Z,15.40
2022-12-04T00:25:49.849Z,15.90
2022-12-04T00:27:54.532Z,15.70
2022-12-04T00:29:59.256Z,16.80
2022-12-04T00:32:04.027Z,16.50
2022-12-04T00:34:08.788Z,16.20
2022-12-04T00:36:15.691Z,16.10
2022-12-04T00:38:20.353Z,15.80
2022-12-04T00:40:25.072Z,16.00
2022-12-04T00:42:29.731Z,15.20
2022-12-04T00:44:34.454Z,15.80
2022-12-04T00:46:39.115Z,16.00
2022-12-04T00:48:44.221Z,15.70
2022-12-04T00:50:48.909Z,16.50
2022-12-04T00:52:53.535Z,16.10
2022-12-04T00:54:58.242Z,16.10
2022-12-04T00:57:02.948Z,15.40
2022-12-04T00:59:07.541Z,16.30
2022-12-04T01:01:14.282Z,15.90
2022-12-04T01:03:19.139Z,15.90
2022-12-04T01:05:24.136Z,16.80
2022-12-04T01:07:28.897Z,16.20
2022-12-04T01:09:33.613Z,16.80
2022-12-04T01:11:38.219Z,16.00
2022-12-04T01:13:42.940Z,16.20
2022-12-04T01:15:47.629Z,15.70
2022-12-04T01:17:52.300Z,16.80
2022-12-04T01:19:57.318Z,16.30
2022-12-04T01:22:02.151Z,17.20
2022-12-04T01:24:10.355Z,16.80
2022-12-04T01:26:15.526Z,16.10
2022-12-04T01:28:20.182Z,15.30
2022-12-04T01:30:24.858Z,15.20
2022-12-04T01:32:30.125Z,15.20
2022-12-04T01:34:35.970Z,13.90
2022-12-04T01:36:40.576Z,14.80
2022-12-04T01:38:45.482Z,14.40
2022-12-04T01:40:50.433Z,14.00
2022-12-04T01:42:55.042Z,13.50
2022-12-04T01:45:36.266Z,13.40
2022-12-04T01:47:40.953Z,13.70
2022-12-04T01:49:48.084Z,12.80
2022-12-04T01:51:56.209Z,13.10
2022-12-04T01:54:03.932Z,12.00
2022-12-04T01:56:10.855Z,12.70
2022-12-04T01:58:17.599Z,12.30
2022-12-04T02:00:22.937Z,13.10
2022-12-04T02:02:32.555Z,11.90
2022-12-04T02:04:38.721Z,12.40
2022-12-04T02:06:43.469Z,11.90
2022-12-04T02:08:48.268Z,12.30
2022-12-04T02:11:04.937Z,12.10
2022-12-04T02:13:16.860Z,12.00
2022-12-04T02:15:28.620Z,12.70
2022-12-04T02:17:40.525Z,12.00
2022-12-04T02:20:07.541Z,12.70
2022-12-04T02:22:24.537Z,12.80
2022-12-04T02:24:49.815Z,12.20
2022-12-04T02:27:01.314Z,12.20
2022-12-04T02:29:12.074Z,11.80
2022-12-04T02:31:20.697Z,12.30
2022-12-04T02:33:29.699Z,12.60
2022-12-04T02:35:37.329Z,13.00
2022-12-04T02:37:45.705Z,13.70
2022-12-04T02:39:56.923Z,13.30
2022-12-04T02:42:08.092Z,13.20
2022-12-04T02:44:19.508Z,14.40
2022-12-04T02:46:28.833Z,14.60
2022-12-04T02:48:40.166Z,15.20
2022-12-04T02:50:46.985Z,15.10
2022-12-04T02:52:55.744Z,14.90
2022-12-04T02:55:08.670Z,15.50
2022-12-04T02:57:18.790Z,15.10
2022-12-04T02:59:29.283Z,15.90
2022-12-04T03:01:38.227Z,15.80
2022-12-04T03:03:43.277Z,14.90
2022-12-04T03:05:55.682Z,15.00
2022-12-04T03:08:04.305Z,15.60
2022-12-04T03:10:13.411Z,15.60
2022-12-04T03:12:24.301Z,15.10
2022-12-04T03:14:32.577Z,15.40
2022-12-04T03:16:41.139Z,15.00
2022-12-04T03:18:49.955Z,15.70
2022-12-04T03:20:58.059Z,16.30
2022-12-04T03:23:09.719Z,16.10
2022-12-04T03:25:14.568Z,15.50
2022-12-04T03:27:26.244Z,14.90
2022-12-04T03:29:35.719Z,15.40
2022-12-04T03:31:46.123Z,15.60
2022-12-04T03:33:56.337Z,14.40
2022-12-04T03:36:07.758Z,15.50
2022-12-04T03:38:18.655Z,14.50
2022-12-04T03:40:28.554Z,14.80
2022-12-04T03:42:40.925Z,14.90
2022-12-04T03:44:49.865Z,14.60
2022-12-04T03:46:59.980Z,14.40
2022-12-04T03:49:13.068Z,14.70
2022-12-04T03:51:22.370Z,13.60
2022-12-04T03:53:32.577Z,15.00
2022-12-04T03:55:44.384Z,12.90
2022-12-04T03:57:51.575Z,14.80
2022-12-04T04:00:01.913Z,14.00
2022-12-04T04:02:14.064Z,14.60
2022-12-04T04:04:23.140Z,13.00
2022-12-04T04:06:32.632Z,14.20
2022-12-04T04:08:42.743Z,14.70
2022-12-04T04:10:48.643Z,15.40
2022-12-04T04:12:59.966Z,15.10
2022-12-04T04:15:12.394Z,15.70
2022-12-04T04:17:22.489Z,15.90
2022-12-04T04:19:32.547Z,16.10
2022-12-04T04:21:38.939Z,16.30
2022-12-04T04:23:46.769Z,17.40
2022-12-04T04:25:52.977Z,17.10
2022-12-04T04:27:59.938Z,17.70
2022-12-04T04:30:06.182Z,18.00
2022-12-04T04:32:17.906Z,18.20
2022-12-04T04:34:32.635Z,18.70
2022-12-04T04:36:46.170Z,19.30
2022-12-04T04:38:59.227Z,18.80
2022-12-04T04:41:09.984Z,19.40
2022-12-04T04:43:20.277Z,19.30
2022-12-04T04:45:29.248Z,19.60
2022-12-04T04:47:43.677Z,19.90
2022-12-04T04:49:49.885Z,18.50
2022-12-04T04:51:56.893Z,19.00
2022-12-04T04:54:05.080Z,19.80
2022-12-04T04:56:10.445Z,19.30
2022-12-04T04:58:17.593Z,20.00
2022-12-04T05:00:24.001Z,19.30
2022-12-04T05:02:29.250Z,19.30
2022-12-04T05:04:33.859Z,18.90
2022-12-04T05:06:38.521Z,18.90
2022-12-04T05:08:43.440Z,20.30
2022-12-04T05:10:48.107Z,20.40
2022-12-04T05:12:52.680Z,19.90
2022-12-04T05:14:57.350Z,19.10
2022-12-04T05:17:02.269Z,20.10
2022-12-04T05:19:07.827Z,19.60
2022-12-04T05:21:14.110Z,20.10
2022-12-04T05:23:18.741Z,20.50
2022-12-04T05:25:23.619Z,19.80
2022-12-04T05:27:30.110Z,20.70
2022-12-04T05:29:36.098Z,19.50
2022-12-04T05:31:40.966Z,19.40
2022-12-04T05:33:45.667Z,20.00
2022-12-04T05:35:59.784Z,19.80
2022-12-04T05:38:04.488Z,18.70
2022-12-04T05:40:11.073Z,20.40
2022-12-04T05:42:15.964Z,19.70
2022-12-04T05:44:20.535Z,20.40
2022-12-04T05:46:25.287Z,19.90
2022-12-04T05:48:29.966Z,19.80
2022-12-04T05:50:34.607Z,20.50
2022-12-04T05:52:39.265Z,20.70
2022-12-04T05:54:43.918Z,19.60
2022-12-04T05:56:48.580Z,19.90
2022-12-04T05:58:53.176Z,19.70
2022-12-04T06:00:58.091Z,19.50
2022-12-04T06:03:02.696Z,18.60
2022-12-04T06:05:08.161Z,18.60
2022-12-04T06:07:13.077Z,17.40
2022-12-04T06:09:17.870Z,19.10
2022-12-04T06:11:26.205Z,19.80
2022-12-04T06:13:30.806Z,19.60
2022-12-04T06:15:39.476Z,18.90
2022-12-04T06:17:44.121Z,19.30
2022-12-04T06:19:49.010Z,19.10
2022-12-04T06:21:54.689Z,19.10
2022-12-04T06:23:59.572Z,17.70
2022-12-04T06:26:07.444Z,18.70
2022-12-04T06:28:12.139Z,18.20
2022-12-04T06:30:17.081Z,18.70
2022-12-04T06:32:22.289Z,17.60
2022-12-04T06:34:27.609Z,18.70
2022-12-04T06:36:32.955Z,18.00
2022-12-04T06:38:37.900Z,18.00
2022-12-04T06:40:42.615Z,18.60
2022-12-04T06:42:47.476Z,17.80
2022-12-04T06:44:52.194Z,18.20
2022-12-04T06:47:00.754Z,17.50
2022-12-04T06:49:05.906Z,17.20
2022-12-04T06:51:12.502Z,18.60
2022-12-04T06:53:17.217Z,17.80
2022-12-04T06:55:21.929Z,17.70
2022-12-04T06:57:26.759Z,17.90
2022-12-04T06:59:31.489Z,16.50
2022-12-04T07:01:36.717Z,18.50
2022-12-04T07:03:46.363Z,17.50
2022-12-04T07:05:55.592Z,17.00
2022-12-04T07:08:00.360Z,17.60
2022-12-04T07:10:05.984Z,17.90
2022-12-04T07:12:10.772Z,17.20
2022-12-04T07:14:15.719Z,17.00
2022-12-04T07:16:22.495Z,18.50
2022-12-04T07:18:27.205Z,17.10
2022-12-04T07:20:32.630Z,17.60
2022-12-04T07:22:37.644Z,17.70
2022-12-04T07:24:42.278Z,17.30
2022-12-04T07:26:47.350Z,17.00
2022-12-04T07:28:52.022Z,16.90
2022-12-04T07:30:56.672Z,17.40
2022-12-04T07:33:01.329Z,16.70
2022-12-04T07:35:12.766Z,16.30
2022-12-04T07:37:17.427Z,16.90
2022-12-04T07:39:22.168Z,16.30
2022-12-04T07:41:26.900Z,15.70
2022-12-04T07:43:32.487Z,15.90
2022-12-04T07:45:38.383Z,15.00
2022-12-04T07:47:43.002Z,14.50
2022-12-04T07:49:47.701Z,14.50
2022-12-04T07:51:52.546Z,14.30
2022-12-04T07:54:02.057Z,14.90
2022-12-04T07:56:12.288Z,15.00
2022-12-04T07:58:17.064Z,14.20
2022-12-04T08:00:22.373Z,15.00
2022-12-04T08:02:27.035Z,14.50
2022-12-04T08:04:31.794Z,14.80
2022-12-04T08:06:36.774Z,14.60
2022-12-04T08:08:41.580Z,14.80
2022-12-04T08:10:46.212Z,14.90
2022-12-04T08:12:50.909Z,14.40
2022-12-04T08:14:55.652Z,14.60
2022-12-04T08:17:00.383Z,15.00
2022-12-04T08:19:05.195Z,14.90
2022-12-04T08:21:12.905Z,14.70
2022-12-04T08:23:17.658Z,13.30
2022-12-04T08:25:22.399Z,14.80
2022-12-04T08:27:27.036Z,13.80
2022-12-04T08:29:31.777Z,13.90
2022-12-04T08:31:37.288Z,13.90
2022-12-04T08:33:43.516Z,10.90
2022-12-04T08:35:48.206Z,13.00
2022-12-04T08:37:52.900Z,14.30
2022-12-04T08:39:57.840Z,13.80
2022-12-04T08:42:02.670Z,13.30
2022-12-04T08:44:07.691Z,13.80
2022-12-04T08:46:14.301Z,13.70
2022-12-04T08:48:19.145Z,13.50
2022-12-04T08:50:23.975Z,12.60
2022-12-04T08:52:28.653Z,13.20
2022-12-04T08:54:36.183Z,12.70
2022-12-04T08:56:41.607Z,14.00
2022-12-04T08:58:47.481Z,13.10
2022-12-04T09:00:52.926Z,12.90
2022-12-04T09:02:58.081Z,12.90
2022-12-04T09:05:04.422Z,13.70
2022-12-04T09:07:10.067Z,12.90
2022-12-04T09:09:16.494Z,13.30
2022-12-04T09:11:24.585Z,13.10
2022-12-04T09:13:32.096Z,13.40
2022-12-04T09:15:40.687Z,13.80
2022-12-04T09:17:46.645Z,14.90
2022-12-04T09:19:57.878Z,14.00
2022-12-04T09:22:07.247Z,14.20
2022-12-04T09:24:13.471Z,13.30
2022-12-04T09:26:25.508Z,13.10
2022-12-04T09:28:31.951Z,14.00
2022-12-04T09:30:37.951Z,14.10
2022-12-04T09:32:44.245Z,12.80
2022-12-04T09:34:52.774Z,13.70
2022-12-04T09:36:58.778Z,13.80
2022-12-04T09:39:12.529Z,13.80
2022-12-04T09:41:34.179Z,13.80
2022-12-04T09:43:51.346Z,14.50
2022-12-04T09:46:05.581Z,14.00
2022-12-04T09:48:14.575Z,13.20
2022-12-04T09:50:24.345Z,14.50
2022-12-04T09:52:46.371Z,13.70
2022-12-04T09:54:56.374Z,14.20
2022-12-04T09:57:13.003Z,14.00
2022-12-04T09:59:24.331Z,12.80
2022-12-04T10:01:40.110Z,13.60
2022-12-04T10:03:50.508Z,14.50
2022-12-04T10:06:08.681Z,14.10
2022-12-04T10:08:21.231Z,13.50
2022-12-04T10:10:36.960Z,13.30
2022-12-04T10:12:53.621Z,13.70
2022-12-04T10:15:12.036Z,13.60
2022-12-04T10:17:35.391Z,13.50
2022-12-04T10:19:53.143Z,14.10
2022-12-04T10:22:11.969Z,13.30
2022-12-04T10:24:39.422Z,12.70
2022-12-04T10:26:47.417Z,13.00
2022-12-04T10:28:56.773Z,12.50
2022-12-04T10:31:04.440Z,12.80
2022-12-04T10:33:19.384Z,12.30
2022-12-04T10:35:27.044Z,12.20
2022-12-04T10:37:39.386Z,11.60
2022-12-04T10:39:50.212Z,11.60
2022-12-04T10:42:01.484Z,12.20
2022-12-04T10:44:09.332Z,11.90
2022-12-04T10:46:19.984Z,11.50
2022-12-04T10:48:32.550Z,11.30
2022-12-04T10:50:37.627Z,10.90
2022-12-04T10:52:42.471Z,11.20
2022-12-04T10:54:51.011Z,10.70
2022-12-04T10:56:58.352Z,10.50
2022-12-04T10:59:05.698Z,10.50
2022-12-04T11:01:14.190Z,11.00
2022-12-04T11:03:28.515Z,10.20
2022-12-04T11:05:38.799Z,10.70
2022-12-04T11:07:48.540Z,10.40
2022-12-04T11:10:05.884Z,11.20
2022-12-04T11:12:19.258Z,11.00
2022-12-04T11:14:25.152Z,9.60
2022-12-04T11:16:37.367Z,10.40
2022-12-04T11:18:52.446Z,9.70
2022-12-04T11:21:00.057Z,9.90
2022-12-04T11:23:06.371Z,9.80
2022-12-04T11:25:19.950Z,10.20
2022-12-04T11:27:29.206Z,11.00
2022-12-04T11:29:37.759Z,10.70
2022-12-04T11:31:54.724Z,13.30
2022-12-04T11:34:06.650Z,10.30
2022-12-04T11:36:22.604Z,9.90
2022-12-04T11:38:33.946Z,10.20
2022-12-04T11:40:46.510Z,9.70
2022-12-04T11:43:04.685Z,9.10
2022-12-04T11:45:21.790Z,9.40
2022-12-04T11:47:30.495Z,10.40
2022-12-04T11:49:43.554Z,9.80
2022-12-04T11:52:02.738Z,10.20
2022-12-04T11:54:22.349Z,9.60
2022-12-04T11:56:42.601Z,9.60
2022-12-04T11:59:10.103Z,9.70
2022-12-04T12:01:33.995Z,9.80
2022-12-04T12:03:47.763Z,10.60
2022-12-04T12:06:15.304Z,10.70
2022-12-04T12:08:29.844Z,10.50
2022-12-04T12:10:45.665Z,10.20
2022-12-04T12:13:00.466Z,9.90
2022-12-04T12:15:14.187Z,10.50
2022-12-04T12:17:28.350Z,9.50
2022-12-04T12:19:48.072Z,10.50
2022-12-04T12:22:05.164Z,9.90
2022-12-04T12:24:29.794Z,10.10
2022-12-04T12:26:42.678Z,9.70
2022-12-04T12:29:16.368Z,9.50
2022-12-04T12:31:58.798Z,9.80
2022-12-04T12:34:09.610Z,9.40
2022-12-04T12:36:16.462Z,9.00
2022-12-04T12:38:27.183Z,9.40
2022-12-04T12:40:39.136Z,9.60
2022-12-04T12:42:58.490Z,9.40
2022-12-04T12:45:22.521Z,8.60
2022-12-04T12:47:37.984Z,9.40
2022-12-04T12:49:52.821Z,9.40
2022-12-04T12:52:05.339Z,10.00
2022-12-04T12:54:24.529Z,9.30
2022-12-04T12:56:46.158Z,9.60
2022-12-04T12:59:01.281Z,9.30
2022-12-04T13:03:45.767Z,9.50
2022-12-04T13:05:55.568Z,9.10
2022-12-04T13:08:13.969Z,9.20
2022-12-04T13:10:24.891Z,9.10
2022-12-04T13:12:34.956Z,8.90
2022-12-04T13:14:41.626Z,9.50
2022-12-04T13:16:53.980Z,9.10
2022-12-04T13:19:08.652Z,9.00
2022-12-04T13:21:28.784Z,9.00
2022-12-04T13:23:48.244Z,9.20
2022-12-04T13:26:05.101Z,10.10
2022-12-04T13:28:24.969Z,9.80
2022-12-04T13:30:42.448Z,9.90
2022-12-04T13:33:11.525Z,10.10
2022-12-04T13:35:28.529Z,11.90
2022-12-04T13:38:04.740Z,11.10
2022-12-04T13:40:36.299Z,9.60
2022-12-04T13:42:41.694Z,9.80
2022-12-04T13:44:56.165Z,10.20
2022-12-04T13:47:04.558Z,10.50
2022-12-04T13:49:26.680Z,10.40
2022-12-04T13:51:39.614Z,10.30
2022-12-04T13:53:44.970Z,10.20
2022-12-04T13:55:56.935Z,10.30
2022-12-04T13:58:04.280Z,10.30
2022-12-04T14:00:28.229Z,10.50
2022-12-04T14:02:34.906Z,10.70
2022-12-04T14:04:45.705Z,10.90
2022-12-04T14:06:53.295Z,10.50
2022-12-04T14:09:01.532Z,10.60
2022-12-04T14:11:12.247Z,11.00
2022-12-04T14:13:24.973Z,13.70
2022-12-04T14:15:32.836Z,10.70
2022-12-04T14:17:40.019Z,10.50
2022-12-04T14:19:52.435Z,10.50
2022-12-04T14:21:58.389Z,10.70
2022-12-04T14:24:15.447Z,10.50
2022-12-04T14:26:48.797Z,11.00
2022-12-04T14:29:04.913Z,10.70
2022-12-04T14:31:30.396Z,10.20
2022-12-04T14:33:43.166Z,10.20
2022-12-04T14:35:56.430Z,10.10
2022-12-04T14:38:06.336Z,9.40
2022-12-04T14:40:23.528Z,10.10
2022-12-04T14:42:39.028Z,9.80
2022-12-04T14:44:46.591Z,9.60
2022-12-04T14:47:01.210Z,9.30
2022-12-04T14:49:23.129Z,9.40
2022-12-04T14:51:34.325Z,9.50
2022-12-04T14:53:46.762Z,9.10
2022-12-04T14:56:07.781Z,9.10
2022-12-04T14:58:19.707Z,8.70
2022-12-04T15:00:26.488Z,9.00
2022-12-04T15:02:40.350Z,9.20
2022-12-04T15:04:47.645Z,8.90
2022-12-04T15:07:00.542Z,9.40
2022-12-04T15:09:17.124Z,7.80
2022-12-04T15:11:23.275Z,9.30
2022-12-04T15:13:31.386Z,9.30
2022-12-04T15:15:45.015Z,8.80
2022-12-04T15:18:04.787Z,9.50
2022-12-04T15:20:20.318Z,9.30
2022-12-04T15:22:31.019Z,9.00
2022-12-04T15:24:38.193Z,9.30
2022-12-04T15:26:44.369Z,9.30
2022-12-04T15:28:58.830Z,8.90
2022-12-04T15:31:10.275Z,8.70
2022-12-04T15:33:21.738Z,9.10
2022-12-04T15:35:33.359Z,9.00
2022-12-04T15:37:41.643Z,9.30
2022-12-04T15:39:52.466Z,9.50
2022-12-04T15:42:15.764Z,9.20
2022-12-04T15:44:31.619Z,9.50
2022-12-04T15:46:38.291Z,9.10
2022-12-04T15:48:47.843Z,9.30
2022-12-04T15:51:03.399Z,9.10
2022-12-04T15:53:16.463Z,9.20
2022-12-04T15:55:24.524Z,9.10
2022-12-04T15:57:39.072Z,9.30
2022-12-04T15:59:52.007Z,9.30
2022-12-04T16:02:03.630Z,9.50
2022-12-04T16:04:22.358Z,9.90
2022-12-04T16:06:32.567Z,10.20
2022-12-04T16:08:40.781Z,9.00
2022-12-04T16:10:59.402Z,9.00
2022-12-04T16:13:07.871Z,9.60
2022-12-04T16:15:19.098Z,9.20
2022-12-04T16:17:29.718Z,9.40
2022-12-04T16:19:39.219Z,7.50
2022-12-04T16:21:47.322Z,9.00
2022-12-04T16:23:53.362Z,9.00
2022-12-04T16:25:59.451Z,9.50
2022-12-04T16:28:06.415Z,9.30
2022-12-04T16:30:18.867Z,9.40
2022-12-04T16:32:33.580Z,9.60
2022-12-04T16:34:41.364Z,9.20
2022-12-04T16:36:48.721Z,8.90
2022-12-04T16:38:54.284Z,8.50
2022-12-04T16:41:01.194Z,9.10
2022-12-04T16:43:07.934Z,10.70
2022-12-04T16:45:24.326Z,10.90
2022-12-04T16:47:31.318Z,12.90
2022-12-04T16:49:43.655Z,10.20
2022-12-04T16:51:50.801Z,9.70
2022-12-04T16:53:57.680Z,10.10
2022-12-04T16:56:07.467Z,10.30
2022-12-04T16:58:14.597Z,10.70
2022-12-04T17:00:22.529Z,10.80
2022-12-04T17:02:29.054Z,10.30
2022-12-04T17:04:35.630Z,10.30
2022-12-04T17:06:44.139Z,10.90
2022-12-04T17:08:50.374Z,10.90
2022-12-04T17:10:57.755Z,11.30
2022-12-04T17:13:03.871Z,11.60
2022-12-04T17:15:10.815Z,11.40
2022-12-04T17:17:19.085Z,11.50
2022-12-04T17:19:25.489Z,11.20
2022-12-04T17:21:31.480Z,11.30
2022-12-04T17:23:39.582Z,11.40
2022-12-04T17:25:46.421Z,11.00
2022-12-04T17:27:57.024Z,10.80
2022-12-04T17:30:03.834Z,11.70
2022-12-04T17:32:10.599Z,11.20
2022-12-04T17:34:18.511Z,11.00
2022-12-04T17:36:27.275Z,11.40
2022-12-04T17:38:38.041Z,10.40
2022-12-04T17:40:45.993Z,10.90
2022-12-04T17:42:51.337Z,10.60
2022-12-04T17:44:58.193Z,11.40
2022-12-04T17:47:07.783Z,11.10
2022-12-04T17:49:18.701Z,11.40
2022-12-04T17:51:25.762Z,10.60
2022-12-04T17:53:31.070Z,11.50
2022-12-04T17:55:40.465Z,11.10
2022-12-04T17:57:46.757Z,11.00
2022-12-04T17:59:53.522Z,11.10
2022-12-04T18:01:59.548Z,10.70
2022-12-04T18:04:08.260Z,11.10
2022-12-04T18:06:17.832Z,11.50
2022-12-04T18:08:28.918Z,11.10
2022-12-04T18:10:38.382Z,11.90
2022-12-04T18:12:45.469Z,11.20
2022-12-04T18:14:53.622Z,10.50
2022-12-04T18:17:00.690Z,10.60
2022-12-04T18:19:09.018Z,11.10
2022-12-04T18:21:15.276Z,10.70
2022-12-04T18:23:26.221Z,10.50
2022-12-04T18:25:32.322Z,10.80
2022-12-04T18:27:42.067Z,11.10
2022-12-04T18:29:49.023Z,10.70
2022-12-04T18:31:55.957Z,10.30
2022-12-04T18:34:05.528Z,11.30
2022-12-04T18:36:17.428Z,11.40
2022-12-04T18:38:29.952Z,12.60
2022-12-04T18:40:37.913Z,11.10
2022-12-04T18:42:45.598Z,10.60
2022-12-04T18:44:52.418Z,10.50
2022-12-04T18:46:59.283Z,10.10
2022-12-04T18:49:08.022Z,10.60
2022-12-04T18:51:24.339Z,10.80
2022-12-04T18:53:30.914Z,10.90
2022-12-04T18:55:39.153Z,10.30
2022-12-04T18:57:44.643Z,10.60
2022-12-04T18:59:50.919Z,10.30
2022-12-04T19:01:58.161Z,10.60
2022-12-04T19:04:07.284Z,12.40
2022-12-04T19:06:15.305Z,10.60
2022-12-04T19:08:28.465Z,10.40
2022-12-04T19:10:40.412Z,11.00
2022-12-04T19:12:47.247Z,11.00
2022-12-04T19:14:54.818Z,10.90
2022-12-04T19:17:00.064Z,10.70
2022-12-04T19:19:07.309Z,10.10
2022-12-04T19:21:24.476Z,11.10
2022-12-04T19:23:33.994Z,10.30
2022-12-04T19:25:41.702Z,9.90
2022-12-04T19:27:48.962Z,9.90
2022-12-04T19:29:56.953Z,11.00
2022-12-04T19:32:04.660Z,10.60
2022-12-04T19:34:11.183Z,10.20
2022-12-04T19:36:18.807Z,10.30
2022-12-04T19:38:25.945Z,10.40
2022-12-04T19:40:35.385Z,10.20
2022-12-04T19:42:42.927Z,9.90
2022-12-04T19:44:50.886Z,10.30
2022-12-04T19:46:57.941Z,10.50
2022-12-04T19:49:09.882Z,9.70
2022-12-04T19:51:18.591Z,10.60
2022-12-04T19:53:26.251Z,9.90
2022-12-04T19:55:36.004Z,9.70
2022-12-04T19:57:43.973Z,9.60
2022-12-04T19:59:51.463Z,9.90
2022-12-04T20:02:02.431Z,10.30
2022-12-04T20:04:10.230Z,9.70
2022-12-04T20:06:19.321Z,9.40
2022-12-04T20:08:41.098Z,10.30
2022-12-04T20:10:47.998Z,9.70
2022-12-04T20:12:56.610Z,8.80
2022-12-04T20:15:05.437Z,9.60
2022-12-04T20:17:11.892Z,10.00
2022-12-04T20:19:19.628Z,9.60
2022-12-04T20:21:27.023Z,10.00
2022-12-04T20:23:35.441Z,9.30
2022-12-04T20:25:43.355Z,9.00
2022-12-04T20:27:52.414Z,9.80
2022-12-04T20:30:00.903Z,9.20
2022-12-04T20:32:09.027Z,9.10
2022-12-04T20:34:17.783Z,9.30
2022-12-04T20:36:27.019Z,9.30
2022-12-04T20:38:34.042Z,8.90
2022-12-04T20:40:40.935Z,9.30
2022-12-04T20:42:47.281Z,9.00
2022-12-04T20:44:54.660Z,9.30
2022-12-04T20:47:03.874Z,9.30
2022-12-04T20:49:17.232Z,9.50
2022-12-04T20:51:28.812Z,9.80
2022-12-04T20:53:34.947Z,9.00
2022-12-04T20:55:52.617Z,8.80
2022-12-04T20:58:04.493Z,8.50
2022-12-04T21:00:12.492Z,9.50
2022-12-04T21:02:18.224Z,9.10
2022-12-04T21:04:24.155Z,9.00
2022-12-04T21:06:35.051Z,9.30
2022-12-04T21:08:43.574Z,9.10
2022-12-04T21:10:49.070Z,8.80
2022-12-04T21:12:57.282Z,9.10
2022-12-04T21:15:02.994Z,8.70
2022-12-04T21:17:10.538Z,9.00
2022-12-04T21:19:20.748Z,7.90
2022-12-04T21:21:30.750Z,8.20
2022-12-04T21:23:35.976Z,7.80
2022-12-04T21:25:40.803Z,7.20
2022-12-04T21:27:45.837Z,7.00
2022-12-04T21:29:50.757Z,8.00
2022-12-04T21:31:56.021Z,7.30
2022-12-04T21:34:04.252Z,7.20
2022-12-04T21:36:10.785Z,6.70
2022-12-04T21:38:16.048Z,7.00
2022-12-04T21:40:20.928Z,7.60
2022-12-04T21:42:25.854Z,7.00
2022-12-04T21:44:30.674Z,7.00
2022-12-04T21:46:35.622Z,7.40
2022-12-04T21:48:40.500Z,6.40
2022-12-04T21:50:45.236Z,7.10
2022-12-04T21:52:49.855Z,8.10
2022-12-04T21:54:55.324Z,7.40
2022-12-04T21:57:00.371Z,7.30
2022-12-04T21:59:05.483Z,7.00
2022-12-04T22:01:12.528Z,7.50
2022-12-04T22:03:17.921Z,7.70
2022-12-04T22:05:22.906Z,7.60
2022-12-04T22:07:27.607Z,6.10
2022-12-04T22:09:32.477Z,7.70
2022-12-04T22:11:37.726Z,7.50
2022-12-04T22:13:42.783Z,7.70
2022-12-04T22:15:47.606Z,7.50
2022-12-04T22:17:52.515Z,8.00
2022-12-04T22:19:57.528Z,7.80
2022-12-04T22:22:02.631Z,7.90
2022-12-04T22:24:09.211Z,7.30
2022-12-04T22:26:15.693Z,8.10
2022-12-04T22:28:20.454Z,7.80
2022-12-04T22:30:25.694Z,7.50
2022-12-04T22:32:30.338Z,7.70
2022-12-04T22:34:35.301Z,9.00
2022-12-04T22:36:40.023Z,8.80
2022-12-04T22:39:05.889Z,9.30
2022-12-04T22:41:11.799Z,10.40
2022-12-04T22:43:16.422Z,10.70
2022-12-04T22:45:21.171Z,10.90
2022-12-04T22:47:25.961Z,8.80
2022-12-04T22:49:30.600Z,7.90
2022-12-04T22:51:35.268Z,7.70
2022-12-04T22:53:41.781Z,7.80
2022-12-04T22:55:46.415Z,7.10
2022-12-04T22:57:51.063Z,6.20
2022-12-04T22:59:56.043Z,6.90
2022-12-04T23:02:00.841Z,7.60
2022-12-04T23:04:05.708Z,7.40
2022-12-04T23:06:11.220Z,6.50
2022-12-04T23:08:16.083Z,7.30
2022-12-04T23:10:20.967Z,7.60
2022-12-04T23:12:25.690Z,6.90
2022-12-04T23:14:30.474Z,6.80
2022-12-04T23:16:38.112Z,6.90
2022-12-04T23:18:42.872Z,7.00
2022-12-04T23:20:47.540Z,6.90
2022-12-04T23:22:52.254Z,6.50
2022-12-04T23:24:56.904Z,7.20
2022-12-04T23:27:02.881Z,6.70
2022-12-04T23:29:29.582Z,7.10
2022-12-04T23:31:33.878Z,6.90
2022-12-04T23:33:38.947Z,7.00
2022-12-04T23:35:44.007Z,6.90
2022-12-04T23:37:48.689Z,6.90
2022-12-04T23:39:53.479Z,7.10
2022-12-04T23:41:58.149Z,6.10
2022-12-04T23:44:02.817Z,6.60
2022-12-04T23:46:11.233Z,6.20
2022-12-04T23:48:16.279Z,6.30
2022-12-04T23:50:21.169Z,6.50
2022-12-04T23:52:25.782Z,6.60
2022-12-04T23:54:30.570Z,6.80
2022-12-04T23:56:35.306Z,6.70
2022-12-04T23:58:41.115Z,6.60
